createdAt,value
2019-01-30T00:02:25.354Z,96.44
2019-01-30T00:04:55.867Z,96.51
2019-01-30T00:07:26.384Z,96.50
2019-01-30T00:09:56.908Z,96.37
2019-01-30T00:12:27.390Z,96.37
2019-01-30T00:14:57.898Z,96.29
2019-01-30T00:17:28.426Z,96.34
2019-01-30T00:19:58.951Z,96.38
2019-01-30T00:22:29.451Z,96.36
2019-01-30T00:24:59.973Z,96.31
2019-01-30T00:27:30.436Z,96.41
2019-01-30T00:30:04.181Z,96.54
2019-01-30T00:32:33.205Z,96.58
2019-01-30T00:35:03.729Z,96.47
2019-01-30T00:37:34.210Z,96.35
2019-01-30T00:40:05.180Z,96.37
2019-01-30T00:42:35.675Z,96.32
2019-01-30T00:45:09.750Z,96.30
2019-01-30T00:47:40.223Z,96.32
2019-01-30T00:50:12.393Z,96.44
2019-01-30T00:52:42.914Z,96.47
2019-01-30T00:55:13.827Z,96.53
2019-01-30T00:57:44.303Z,96.51
2019-01-30T01:00:18.601Z,96.44
2019-01-30T01:02:49.116Z,96.49
2019-01-30T01:05:19.601Z,96.52
2019-01-30T01:07:50.114Z,96.51
2019-01-30T01:10:21.222Z,96.49
2019-01-30T01:12:51.911Z,96.48
2019-01-30T01:15:23.306Z,96.49
2019-01-30T01:17:53.860Z,96.41
2019-01-30T01:20:24.400Z,96.36
2019-01-30T01:22:54.968Z,96.31
2019-01-30T01:25:25.516Z,96.24
2019-01-30T01:27:55.968Z,96.25
2019-01-30T01:30:27.949Z,96.33
2019-01-30T01:32:58.449Z,96.45
2019-01-30T01:35:28.914Z,96.42
2019-01-30T01:37:59.420Z,96.45
2019-01-30T01:40:29.912Z,96.47
2019-01-30T01:43:00.418Z,96.42
2019-01-30T01:45:30.953Z,96.32
2019-01-30T01:48:01.424Z,96.26
2019-01-30T01:50:31.935Z,96.34
2019-01-30T01:53:02.441Z,96.39
2019-01-30T01:55:32.931Z,96.38
2019-01-30T01:58:03.346Z,96.18
2019-01-30T02:00:35.482Z,96.18
2019-01-30T02:03:06.044Z,96.11
2019-01-30T02:05:36.544Z,95.99
2019-01-30T02:08:07.443Z,95.97
2019-01-30T02:10:37.924Z,95.90
2019-01-30T02:13:08.411Z,95.95
2019-01-30T02:15:38.910Z,96.02
2019-01-30T02:18:09.411Z,95.76
2019-01-30T02:20:39.894Z,95.60
2019-01-30T02:23:10.484Z,95.62
2019-01-30T02:25:41.012Z,95.60
2019-01-30T02:28:11.476Z,95.60
2019-01-30T02:30:47.582Z,95.59
2019-01-30T02:33:14.247Z,95.52
2019-01-30T02:35:44.932Z,95.40
2019-01-30T02:38:15.431Z,95.17
2019-01-30T02:40:45.952Z,95.18
2019-01-30T02:43:16.447Z,95.30
2019-01-30T02:45:46.935Z,95.36
2019-01-30T02:48:17.505Z,95.35
2019-01-30T02:50:47.965Z,95.35
2019-01-30T02:53:18.509Z,95.33
2019-01-30T02:55:49.001Z,95.23
2019-01-30T02:58:19.519Z,95.15
2019-01-30T03:00:59.032Z,94.97
2019-01-30T03:03:22.309Z,95.15
2019-01-30T03:05:52.789Z,95.25
2019-01-30T03:08:23.288Z,95.30
2019-01-30T03:10:53.738Z,95.49
2019-01-30T03:13:24.224Z,95.56
2019-01-30T03:15:54.703Z,95.47
2019-01-30T03:18:25.204Z,95.34
2019-01-30T03:20:55.660Z,95.33
2019-01-30T03:23:26.162Z,95.42
2019-01-30T03:25:56.634Z,95.38
2019-01-30T03:28:27.109Z,95.43
2019-01-30T03:30:57.611Z,95.36
2019-01-30T03:33:28.120Z,95.30
2019-01-30T03:35:58.665Z,95.15
2019-01-30T03:38:29.171Z,95.20
2019-01-30T03:40:59.642Z,95.26
2019-01-30T03:43:30.175Z,95.26
2019-01-30T03:46:00.756Z,95.21
2019-01-30T03:48:31.263Z,95.26
2019-01-30T03:51:01.805Z,95.41
2019-01-30T03:53:32.338Z,95.44
2019-01-30T03:56:02.836Z,95.62
2019-01-30T03:58:33.365Z,95.33
2019-01-30T04:01:03.877Z,95.06
2019-01-30T04:03:34.413Z,94.88
2019-01-30T04:06:04.960Z,95.08
2019-01-30T04:08:35.509Z,94.97
2019-01-30T04:11:06.019Z,95.07
2019-01-30T04:13:36.499Z,95.19
2019-01-30T04:16:07.167Z,95.20
2019-01-30T04:18:37.714Z,94.95
2019-01-30T04:21:08.208Z,94.96
2019-01-30T04:23:38.775Z,94.98
2019-01-30T04:26:09.282Z,95.09
2019-01-30T04:28:39.829Z,94.87
2019-01-30T04:31:10.382Z,94.73
2019-01-30T04:33:40.946Z,94.61
2019-01-30T04:36:11.535Z,94.68
2019-01-30T04:38:42.134Z,94.72
2019-01-30T04:41:12.724Z,94.79
2019-01-30T04:43:43.303Z,94.78
2019-01-30T04:46:13.845Z,94.93
2019-01-30T04:48:44.445Z,94.91
2019-01-30T04:51:14.940Z,94.83
2019-01-30T04:53:45.631Z,94.79
2019-01-30T04:56:16.189Z,94.82
2019-01-30T04:58:46.708Z,94.76
2019-01-30T05:01:17.349Z,94.75
2019-01-30T05:03:48.034Z,94.67
2019-01-30T05:06:18.722Z,94.68
2019-01-30T05:08:49.407Z,94.80
2019-01-30T05:11:20.045Z,94.83
2019-01-30T05:13:50.711Z,94.86
2019-01-30T05:16:21.309Z,94.76
2019-01-30T05:18:52.099Z,94.55
2019-01-30T05:21:22.705Z,94.55
2019-01-30T05:23:53.614Z,94.54
2019-01-30T05:26:24.256Z,94.76
2019-01-30T05:28:54.848Z,94.80
2019-01-30T05:31:29.873Z,94.79
2019-01-30T05:34:00.613Z,94.98
2019-01-30T05:36:31.330Z,94.92
2019-01-30T05:39:02.174Z,94.83
2019-01-30T05:41:32.814Z,94.83
2019-01-30T05:44:03.944Z,94.92
2019-01-30T05:46:34.797Z,95.06
2019-01-30T05:49:05.570Z,95.13
2019-01-30T05:51:36.284Z,94.94
2019-01-30T05:54:07.151Z,94.88
2019-01-30T05:56:37.739Z,94.99
2019-01-30T05:59:09.954Z,95.19
2019-01-30T06:01:40.610Z,95.29
2019-01-30T06:04:11.655Z,95.00
2019-01-30T06:06:42.674Z,95.15
2019-01-30T06:09:13.442Z,94.78
2019-01-30T06:11:44.103Z,94.59
2019-01-30T06:14:15.019Z,94.80
2019-01-30T06:16:45.907Z,94.82
2019-01-30T06:19:20.976Z,94.83
2019-01-30T06:21:49.394Z,94.79
2019-01-30T06:24:20.612Z,94.65
2019-01-30T06:26:51.430Z,94.24
2019-01-30T06:29:22.739Z,94.16
2019-01-30T06:31:53.899Z,94.19
2019-01-30T06:34:24.686Z,94.27
2019-01-30T06:36:55.512Z,94.34
2019-01-30T06:39:26.372Z,94.24
2019-01-30T06:41:57.225Z,94.15
2019-01-30T06:44:28.115Z,93.99
2019-01-30T06:46:59.013Z,94.18
2019-01-30T06:49:29.834Z,93.93
2019-01-30T06:52:00.736Z,93.75
2019-01-30T06:54:32.956Z,93.90
2019-01-30T06:57:03.708Z,93.89
2019-01-30T06:59:34.495Z,94.16
2019-01-30T07:02:05.571Z,94.19
2019-01-30T07:04:37.169Z,94.22
2019-01-30T07:07:07.975Z,94.12
2019-01-30T07:09:38.814Z,94.14
2019-01-30T07:12:10.562Z,93.88
2019-01-30T07:14:41.500Z,93.52
2019-01-30T07:17:12.233Z,93.36
2019-01-30T07:22:45.899Z,93.30
2019-01-30T07:25:22.971Z,93.18
2019-01-30T07:28:43.579Z,92.87
2019-01-30T07:32:11.973Z,93.19
2019-01-30T07:34:56.025Z,93.39
2019-01-30T07:37:58.808Z,93.01
2019-01-30T07:40:32.156Z,92.54
2019-01-30T07:43:07.531Z,92.89
2019-01-30T07:45:38.619Z,92.67
2019-01-30T07:48:18.357Z,93.01
2019-01-30T07:50:52.574Z,93.35
2019-01-30T07:53:23.358Z,93.54
2019-01-30T07:55:53.948Z,93.36
2019-01-30T07:58:25.861Z,93.43
2019-01-30T08:01:15.537Z,93.22
2019-01-30T08:04:25.398Z,93.32
2019-01-30T08:06:55.988Z,93.01
2019-01-30T08:12:12.670Z,91.86
2019-01-30T08:17:41.456Z,92.05
2019-01-30T08:21:09.328Z,92.01
2019-01-30T08:27:52.201Z,91.52
2019-01-30T08:34:42.043Z,90.53
2019-01-30T08:37:16.480Z,91.14
2019-01-30T08:39:47.123Z,90.96
2019-01-30T08:42:17.776Z,90.50
2019-01-30T08:44:48.351Z,90.45
2019-01-30T08:47:19.341Z,90.64
2019-01-30T08:49:49.952Z,90.68
2019-01-30T08:52:20.502Z,90.04
2019-01-30T08:54:51.135Z,90.13
2019-01-30T08:57:21.695Z,90.24
2019-01-30T08:59:52.556Z,90.36
2019-01-30T09:02:23.284Z,90.22
2019-01-30T09:04:53.847Z,90.12
2019-01-30T09:07:24.392Z,89.50
2019-01-30T09:09:54.926Z,89.74
2019-01-30T09:12:25.491Z,90.16
2019-01-30T09:14:56.114Z,89.82
2019-01-30T09:17:26.794Z,89.23
2019-01-30T09:19:57.441Z,88.72
2019-01-30T09:22:28.050Z,88.67
2019-01-30T09:24:58.660Z,88.95
2019-01-30T09:27:29.307Z,89.00
2019-01-30T09:29:59.857Z,88.38
2019-01-30T09:32:30.483Z,88.77
2019-01-30T09:35:01.117Z,88.72
2019-01-30T09:37:31.730Z,88.51
2019-01-30T09:40:02.329Z,88.33
2019-01-30T09:45:01.662Z,88.53
2019-01-30T09:47:32.180Z,88.42
2019-01-30T09:50:02.664Z,88.29
2019-01-30T09:52:33.238Z,87.73
2019-01-30T09:55:03.862Z,86.14
2019-01-30T09:57:34.398Z,85.51
2019-01-30T10:00:06.150Z,86.35
2019-01-30T10:02:36.689Z,86.24
2019-01-30T10:05:08.711Z,86.46
2019-01-30T10:07:39.282Z,86.32
2019-01-30T10:10:15.159Z,85.19
2019-01-30T10:12:45.726Z,85.57
2019-01-30T10:15:19.148Z,86.16
2019-01-30T10:17:49.622Z,85.24
2019-01-30T10:20:23.528Z,85.06
2019-01-30T10:22:54.060Z,85.47
2019-01-30T10:25:24.559Z,85.70
2019-01-30T10:27:55.099Z,85.59
2019-01-30T10:30:32.070Z,85.04
2019-01-30T10:33:06.266Z,84.30
2019-01-30T10:35:36.888Z,85.16
2019-01-30T10:38:07.647Z,84.65
2019-01-30T10:40:38.349Z,85.07
2019-01-30T10:43:09.075Z,84.39
2019-01-30T10:45:39.618Z,84.13
2019-01-30T10:48:10.165Z,84.23
2019-01-30T10:50:40.675Z,84.40
2019-01-30T10:53:11.989Z,84.65
2019-01-30T10:55:42.620Z,84.09
2019-01-30T10:58:17.132Z,84.62
2019-01-30T11:00:50.959Z,83.21
2019-01-30T11:03:21.651Z,84.01
2019-01-30T11:05:52.276Z,83.71
2019-01-30T11:08:22.773Z,82.95
2019-01-30T11:10:53.396Z,82.93
2019-01-30T11:13:23.868Z,82.58
2019-01-30T11:15:54.383Z,82.29
2019-01-30T11:18:24.853Z,80.54
2019-01-30T11:20:55.382Z,81.38
2019-01-30T11:23:25.899Z,81.36
2019-01-30T11:25:57.054Z,79.91
2019-01-30T11:28:27.731Z,79.95
2019-01-30T11:30:58.215Z,78.51
2019-01-30T11:33:28.741Z,77.14
2019-01-30T11:35:59.210Z,77.54
2019-01-30T11:38:29.735Z,78.76
2019-01-30T11:41:00.542Z,77.47
2019-01-30T11:43:34.057Z,78.63
2019-01-30T11:46:04.746Z,77.88
2019-01-30T11:48:35.283Z,77.74
2019-01-30T11:51:06.046Z,77.26
2019-01-30T11:53:36.743Z,77.44
2019-01-30T11:56:08.046Z,78.56
2019-01-30T11:58:38.836Z,78.08
2019-01-30T12:01:09.531Z,77.16
2019-01-30T12:03:40.294Z,76.04
2019-01-30T12:06:10.929Z,75.89
2019-01-30T12:08:41.808Z,76.77
2019-01-30T12:11:12.534Z,77.28
2019-01-30T12:13:43.032Z,77.07
2019-01-30T12:16:13.484Z,77.13
2019-01-30T12:18:44.119Z,76.89
2019-01-30T12:21:14.692Z,76.70
2019-01-30T12:23:45.290Z,74.71
2019-01-30T12:26:16.127Z,75.52
2019-01-30T12:28:46.745Z,76.62
2019-01-30T12:31:17.402Z,75.45
2019-01-30T12:33:47.866Z,74.79
2019-01-30T12:36:18.638Z,74.85
2019-01-30T12:38:49.116Z,74.80
2019-01-30T12:41:19.814Z,73.90
2019-01-30T12:43:50.335Z,74.70
2019-01-30T12:46:20.811Z,73.06
2019-01-30T12:48:51.293Z,72.96
2019-01-30T12:51:22.029Z,74.18
2019-01-30T12:53:52.551Z,74.76
2019-01-30T12:56:23.069Z,73.55
2019-01-30T12:58:53.661Z,73.73
2019-01-30T13:01:24.220Z,72.39
2019-01-30T13:03:57.433Z,73.66
2019-01-30T13:06:27.979Z,74.10
2019-01-30T13:08:58.518Z,72.26
2019-01-30T13:11:29.011Z,71.65
2019-01-30T13:13:59.509Z,72.65
2019-01-30T13:16:29.992Z,71.84
2019-01-30T13:19:00.585Z,72.65
2019-01-30T13:21:30.980Z,70.32
2019-01-30T13:24:01.449Z,69.11
2019-01-30T13:26:31.977Z,71.45
2019-01-30T13:29:02.446Z,71.70
2019-01-30T13:31:32.936Z,70.71
2019-01-30T13:34:03.457Z,70.19
2019-01-30T13:36:33.960Z,69.08
2019-01-30T13:39:06.607Z,71.23
2019-01-30T13:41:37.119Z,71.29
2019-01-30T13:44:09.193Z,69.10
2019-01-30T13:46:39.701Z,69.75
2019-01-30T13:49:10.205Z,70.17
2019-01-30T13:51:40.722Z,70.69
2019-01-30T13:54:11.375Z,70.41
2019-01-30T13:56:41.869Z,70.79
2019-01-30T13:59:12.372Z,71.21
2019-01-30T14:01:42.850Z,71.74
2019-01-30T14:04:13.464Z,69.59
2019-01-30T14:06:43.917Z,69.91
2019-01-30T14:09:14.476Z,68.96
2019-01-30T14:11:44.975Z,68.86
2019-01-30T14:14:15.456Z,70.06
2019-01-30T14:16:46.083Z,71.07
2019-01-30T14:19:16.626Z,71.75
2019-01-30T14:21:47.102Z,71.51
2019-01-30T14:24:17.600Z,72.18
2019-01-30T14:26:48.058Z,69.88
2019-01-30T14:29:18.571Z,70.49
2019-01-30T14:31:49.012Z,70.79
2019-01-30T14:34:19.509Z,70.83
2019-01-30T14:36:49.958Z,70.26
2019-01-30T14:39:20.935Z,69.65
2019-01-30T14:41:51.501Z,69.72
2019-01-30T14:44:21.977Z,71.33
2019-01-30T14:46:52.473Z,70.84
2019-01-30T14:49:22.962Z,69.92
2019-01-30T14:51:53.449Z,71.34
2019-01-30T14:54:23.914Z,72.11
2019-01-30T14:56:54.399Z,71.60
2019-01-30T14:59:24.920Z,69.99
2019-01-30T15:01:55.382Z,71.39
2019-01-30T15:04:25.882Z,71.50
2019-01-30T15:06:56.355Z,72.24
2019-01-30T15:09:26.886Z,70.09
2019-01-30T15:11:57.399Z,71.12
2019-01-30T15:14:28.041Z,70.40
2019-01-30T15:16:58.555Z,71.10
2019-01-30T15:19:29.145Z,70.47
2019-01-30T15:21:59.659Z,70.26
2019-01-30T15:24:30.148Z,67.76
2019-01-30T15:27:00.642Z,67.91
2019-01-30T15:29:31.141Z,68.11
2019-01-30T15:32:01.575Z,69.53
2019-01-30T15:34:32.071Z,69.18
2019-01-30T15:37:02.521Z,69.29
2019-01-30T15:39:33.011Z,69.85
2019-01-30T15:42:03.498Z,70.11
2019-01-30T15:44:34.004Z,69.87
2019-01-30T15:47:04.487Z,69.93
2019-01-30T15:49:35.009Z,70.40
2019-01-30T15:52:05.475Z,70.54
2019-01-30T15:54:36.002Z,71.19
2019-01-30T15:57:06.604Z,72.04
2019-01-30T15:59:37.135Z,72.03
2019-01-30T16:02:08.100Z,72.06
2019-01-30T16:04:38.603Z,72.18
2019-01-30T16:07:09.590Z,72.24
2019-01-30T16:09:40.912Z,72.10
2019-01-30T16:12:11.462Z,72.03
2019-01-30T16:14:42.013Z,72.36
2019-01-30T16:17:12.520Z,72.97
2019-01-30T16:19:43.060Z,73.65
2019-01-30T16:22:13.560Z,72.65
2019-01-30T16:24:44.030Z,73.09
2019-01-30T16:27:14.555Z,73.66
2019-01-30T16:29:45.039Z,73.60
2019-01-30T16:32:17.627Z,74.52
2019-01-30T16:34:47.826Z,73.97
2019-01-30T16:37:18.375Z,73.98
2019-01-30T16:39:48.915Z,74.67
2019-01-30T16:42:19.442Z,74.94
2019-01-30T16:44:49.927Z,73.96
2019-01-30T16:47:20.432Z,73.68
2019-01-30T16:49:50.833Z,74.49
2019-01-30T16:52:21.453Z,74.34
2019-01-30T16:54:51.939Z,74.55
2019-01-30T16:57:22.433Z,74.55
2019-01-30T16:59:52.915Z,74.15
2019-01-30T17:02:23.447Z,74.08
2019-01-30T17:04:53.944Z,75.54
2019-01-30T17:07:24.433Z,74.13
2019-01-30T17:09:54.927Z,74.44
2019-01-30T17:12:25.478Z,75.38
2019-01-30T17:14:55.991Z,75.60
2019-01-30T17:17:26.555Z,74.88
2019-01-30T17:19:57.164Z,75.01
2019-01-30T17:22:27.627Z,74.73
2019-01-30T17:24:58.159Z,75.56
2019-01-30T17:27:28.671Z,74.11
2019-01-30T17:29:59.198Z,74.26
2019-01-30T17:32:29.696Z,75.42
2019-01-30T17:35:00.285Z,75.46
2019-01-30T17:37:30.809Z,75.68
2019-01-30T17:40:02.668Z,74.70
2019-01-30T17:42:33.490Z,75.29
2019-01-30T17:45:05.424Z,75.76
2019-01-30T17:47:35.946Z,75.71
2019-01-30T17:50:08.447Z,75.43
2019-01-30T17:52:38.975Z,75.88
2019-01-30T17:55:09.548Z,75.82
2019-01-30T17:57:40.144Z,76.01
2019-01-30T18:00:22.757Z,75.26
2019-01-30T18:02:53.293Z,75.14
2019-01-30T18:05:23.788Z,75.72
2019-01-30T18:07:54.504Z,75.84
2019-01-30T18:10:25.299Z,76.39
2019-01-30T18:12:56.075Z,76.77
2019-01-30T18:15:26.718Z,75.85
2019-01-30T18:17:57.246Z,75.21
2019-01-30T18:20:30.901Z,75.13
2019-01-30T18:23:01.559Z,74.88
2019-01-30T18:25:31.997Z,75.37
2019-01-30T18:28:02.543Z,76.66
2019-01-30T18:30:33.035Z,76.92
2019-01-30T18:33:03.540Z,76.21
2019-01-30T18:35:34.010Z,76.74
2019-01-30T18:38:05.287Z,75.99
2019-01-30T18:40:35.855Z,77.18
2019-01-30T18:43:06.480Z,77.19
2019-01-30T18:45:36.995Z,77.96
2019-01-30T18:48:07.678Z,77.90
2019-01-30T18:50:38.172Z,77.26
2019-01-30T18:53:08.710Z,77.85
2019-01-30T18:55:39.166Z,77.68
2019-01-30T18:58:09.666Z,77.25
2019-01-30T19:00:43.178Z,78.26
2019-01-30T19:03:19.486Z,78.63
2019-01-30T19:05:50.552Z,78.70
2019-01-30T19:08:21.076Z,79.04
2019-01-30T19:10:51.586Z,79.62
2019-01-30T19:13:22.527Z,79.80
2019-01-30T19:15:53.052Z,80.49
2019-01-30T19:18:23.554Z,80.64
2019-01-30T19:20:54.156Z,80.93
2019-01-30T19:23:24.657Z,80.93
2019-01-30T19:25:55.217Z,81.74
2019-01-30T19:28:25.797Z,82.69
2019-01-30T19:30:56.342Z,83.67
2019-01-30T19:33:26.894Z,84.61
2019-01-30T19:35:57.450Z,85.10
2019-01-30T19:38:28.065Z,84.76
2019-01-30T19:40:58.599Z,84.56
2019-01-30T19:43:29.167Z,85.55
2019-01-30T19:45:59.715Z,85.62
2019-01-30T19:48:30.233Z,85.49
2019-01-30T19:51:01.687Z,85.75
2019-01-30T19:53:32.426Z,86.10
2019-01-30T19:56:02.986Z,85.76
2019-01-30T19:58:33.586Z,85.45
2019-01-30T20:01:04.246Z,86.31
2019-01-30T20:03:35.793Z,85.96
2019-01-30T20:06:07.631Z,86.15
2019-01-30T20:08:38.196Z,85.50
2019-01-30T20:11:08.840Z,84.54
2019-01-30T20:13:39.518Z,85.03
2019-01-30T20:16:10.091Z,85.05
2019-01-30T20:18:40.687Z,84.79
2019-01-30T20:21:11.291Z,85.10
2019-01-30T20:23:42.065Z,84.46
2019-01-30T20:26:12.756Z,85.27
2019-01-30T20:28:43.372Z,85.68
2019-01-30T20:31:13.878Z,86.03
2019-01-30T20:33:44.441Z,85.92
2019-01-30T20:36:14.974Z,86.49
2019-01-30T20:38:45.454Z,85.53
2019-01-30T20:41:15.917Z,85.62
2019-01-30T20:43:46.545Z,85.00
2019-01-30T20:46:17.051Z,84.50
2019-01-30T20:48:51.623Z,84.78
2019-01-30T20:51:19.897Z,85.07
2019-01-30T20:53:50.431Z,84.88
2019-01-30T20:56:21.201Z,85.03
2019-01-30T20:58:51.825Z,84.38
2019-01-30T21:01:22.336Z,84.16
2019-01-30T21:03:52.829Z,84.30
2019-01-30T21:06:23.425Z,83.92
2019-01-30T21:08:53.987Z,84.22
2019-01-30T21:11:25.034Z,84.23
2019-01-30T21:13:56.523Z,83.28
2019-01-30T21:16:27.140Z,83.73
2019-01-30T21:19:00.188Z,83.72
2019-01-30T21:21:31.029Z,84.04
2019-01-30T21:24:01.720Z,83.27
2019-01-30T21:26:32.309Z,82.27
2019-01-30T21:29:02.888Z,82.01
2019-01-30T21:31:33.449Z,81.84
2019-01-30T21:34:04.007Z,82.11
2019-01-30T21:36:34.599Z,81.63
2019-01-30T21:39:08.849Z,81.33
2019-01-30T21:41:39.537Z,81.59
2019-01-30T21:44:12.222Z,81.85
2019-01-30T21:46:43.043Z,81.60
2019-01-30T21:49:13.583Z,81.86
2019-01-30T21:51:44.234Z,81.61
2019-01-30T21:54:14.813Z,81.73
2019-01-30T21:56:45.540Z,81.26
2019-01-30T21:59:18.573Z,81.19
2019-01-30T22:01:49.501Z,81.30
2019-01-30T22:04:20.231Z,81.38
2019-01-30T22:06:50.925Z,82.33
2019-01-30T22:09:21.506Z,82.52
2019-01-30T22:11:52.094Z,82.89
2019-01-30T22:14:22.650Z,82.86
2019-01-30T22:16:53.168Z,82.97
2019-01-30T22:19:23.904Z,84.11
2019-01-30T22:21:54.386Z,84.18
2019-01-30T22:24:24.875Z,84.84
2019-01-30T22:26:55.370Z,84.39
2019-01-30T22:29:25.844Z,84.60
2019-01-30T22:31:56.312Z,85.31
2019-01-30T22:34:26.864Z,85.09
2019-01-30T22:36:57.345Z,84.62
2019-01-30T22:39:28.317Z,83.52
2019-01-30T22:41:58.919Z,83.12
2019-01-30T22:44:29.391Z,83.13
2019-01-30T22:46:59.922Z,82.64
2019-01-30T22:49:30.456Z,82.14
2019-01-30T22:52:00.922Z,82.41
2019-01-30T22:54:31.458Z,80.77
2019-01-30T22:57:01.947Z,80.90
2019-01-30T22:59:32.450Z,81.15
2019-01-30T23:02:09.705Z,80.77
2019-01-30T23:05:23.113Z,81.46
2019-01-30T23:08:25.446Z,81.85
2019-01-30T23:12:00.646Z,81.11
2019-01-30T23:14:50.669Z,81.64
2019-01-30T23:18:29.395Z,82.12
2019-01-30T23:21:11.669Z,81.90
2019-01-30T23:24:30.399Z,81.76
2019-01-30T23:27:40.039Z,82.33
2019-01-30T23:30:47.785Z,81.29
2019-01-30T23:34:15.405Z,81.87
2019-01-30T23:37:33.560Z,81.90
2019-01-30T23:40:40.070Z,82.05
2019-01-30T23:44:14.570Z,81.89
2019-01-30T23:47:49.829Z,81.90
2019-01-30T23:51:26.229Z,82.05
2019-01-30T23:54:38.075Z,81.25
2019-01-30T23:57:53.067Z,81.97
